sensor_id;sensor_type;location;lat;lon;timestamp;P1;durP1;ratioP1;P2;durP2;ratioP2
13415;SDS011;6779;50.150;8.680;2023-01-23T00:01:21;12.20;;;6.87;;
13415;SDS011;6779;50.150;8.680;2023-01-23T00:03:51;10.23;;;7.17;;
13415;SDS011;6779;50.150;8.680;2023-01-23T00:06:17;12.63;;;7.10;;
13415;SDS011;6779;50.150;8.680;2023-01-23T00:08:43;10.73;;;6.30;;
13415;SDS011;6779;50.150;8.680;2023-01-23T00:11:11;12.20;;;6.80;;
13415;SDS011;6779;50.150;8.680;2023-01-23T00:13:39;11.33;;;6.93;;
13415;SDS011;6779;50.150;8.680;2023-01-23T00:16:05;11.80;;;7.07;;
13415;SDS011;6779;50.150;8.680;2023-01-23T00:18:35;10.93;;;6.27;;
13415;SDS011;6779;50.150;8.680;2023-01-23T00:21:10;10.33;;;6.47;;
13415;SDS011;6779;50.150;8.680;2023-01-23T00:23:40;11.03;;;6.37;;
13415;SDS011;6779;50.150;8.680;2023-01-23T00:26:09;11.93;;;7.30;;
13415;SDS011;6779;50.150;8.680;2023-01-23T00:28:39;11.53;;;7.20;;
13415;SDS011;6779;50.150;8.680;2023-01-23T00:31:08;12.80;;;7.13;;
13415;SDS011;6779;50.150;8.680;2023-01-23T00:33:39;11.40;;;6.93;;
13415;SDS011;6779;50.150;8.680;2023-01-23T00:36:05;13.40;;;7.40;;
13415;SDS011;6779;50.150;8.680;2023-01-23T00:38:31;9.63;;;6.57;;
13415;SDS011;6779;50.150;8.680;2023-01-23T00:40:57;13.80;;;7.40;;
13415;SDS011;6779;50.150;8.680;2023-01-23T00:43:23;12.50;;;6.60;;
13415;SDS011;6779;50.150;8.680;2023-01-23T00:45:49;10.47;;;5.67;;
13415;SDS011;6779;50.150;8.680;2023-01-23T00:48:14;12.27;;;6.97;;
13415;SDS011;6779;50.150;8.680;2023-01-23T00:50:40;13.47;;;7.30;;
13415;SDS011;6779;50.150;8.680;2023-01-23T00:53:05;11.40;;;6.37;;
13415;SDS011;6779;50.150;8.680;2023-01-23T00:55:31;11.50;;;6.57;;
13415;SDS011;6779;50.150;8.680;2023-01-23T00:57:56;11.53;;;6.63;;
13415;SDS011;6779;50.150;8.680;2023-01-23T01:00:22;13.57;;;6.33;;
13415;SDS011;6779;50.150;8.680;2023-01-23T01:02:48;10.07;;;5.97;;
13415;SDS011;6779;50.150;8.680;2023-01-23T01:05:13;10.17;;;6.40;;
13415;SDS011;6779;50.150;8.680;2023-01-23T01:07:42;10.93;;;6.70;;
13415;SDS011;6779;50.150;8.680;2023-01-23T01:10:08;13.43;;;6.80;;
13415;SDS011;6779;50.150;8.680;2023-01-23T01:12:34;13.63;;;6.33;;
13415;SDS011;6779;50.150;8.680;2023-01-23T01:15:00;12.10;;;6.73;;
13415;SDS011;6779;50.150;8.680;2023-01-23T01:17:26;10.20;;;6.77;;
13415;SDS011;6779;50.150;8.680;2023-01-23T01:19:52;11.03;;;6.57;;
13415;SDS011;6779;50.150;8.680;2023-01-23T01:22:17;10.87;;;6.47;;
13415;SDS011;6779;50.150;8.680;2023-01-23T01:24:43;9.93;;;6.37;;
13415;SDS011;6779;50.150;8.680;2023-01-23T01:27:09;12.20;;;6.27;;
13415;SDS011;6779;50.150;8.680;2023-01-23T01:29:34;13.20;;;7.07;;
13415;SDS011;6779;50.150;8.680;2023-01-23T01:32:00;11.57;;;6.67;;
13415;SDS011;6779;50.150;8.680;2023-01-23T01:34:25;14.10;;;7.13;;
13415;SDS011;6779;50.150;8.680;2023-01-23T01:36:51;13.30;;;6.77;;
13415;SDS011;6779;50.150;8.680;2023-01-23T01:39:17;12.20;;;6.50;;
13415;SDS011;6779;50.150;8.680;2023-01-23T01:41:43;11.13;;;6.73;;
13415;SDS011;6779;50.150;8.680;2023-01-23T01:44:16;11.27;;;6.57;;
13415;SDS011;6779;50.150;8.680;2023-01-23T01:46:43;12.20;;;6.73;;
13415;SDS011;6779;50.150;8.680;2023-01-23T01:49:25;13.23;;;7.00;;
13415;SDS011;6779;50.150;8.680;2023-01-23T01:52:00;13.53;;;7.10;;
13415;SDS011;6779;50.150;8.680;2023-01-23T01:56:58;12.77;;;6.87;;
13415;SDS011;6779;50.150;8.680;2023-01-23T01:59:35;12.03;;;6.97;;
13415;SDS011;6779;50.150;8.680;2023-01-23T02:02:12;12.60;;;6.70;;
13415;SDS011;6779;50.150;8.680;2023-01-23T02:04:43;11.80;;;6.50;;
13415;SDS011;6779;50.150;8.680;2023-01-23T02:07:23;11.90;;;6.70;;
13415;SDS011;6779;50.150;8.680;2023-01-23T02:10:10;12.47;;;6.47;;
13415;SDS011;6779;50.150;8.680;2023-01-23T02:12:36;13.37;;;6.80;;
13415;SDS011;6779;50.150;8.680;2023-01-23T02:15:03;15.07;;;7.20;;
13415;SDS011;6779;50.150;8.680;2023-01-23T02:17:30;13.83;;;7.30;;
13415;SDS011;6779;50.150;8.680;2023-01-23T02:20:00;14.80;;;7.43;;
13415;SDS011;6779;50.150;8.680;2023-01-23T02:22:31;15.20;;;7.03;;
13415;SDS011;6779;50.150;8.680;2023-01-23T02:27:53;14.70;;;7.27;;
13415;SDS011;6779;50.150;8.680;2023-01-23T02:30:19;13.17;;;6.93;;
13415;SDS011;6779;50.150;8.680;2023-01-23T02:32:46;15.33;;;7.67;;
13415;SDS011;6779;50.150;8.680;2023-01-23T02:35:14;15.10;;;7.40;;
13415;SDS011;6779;50.150;8.680;2023-01-23T02:37:45;14.50;;;7.63;;
13415;SDS011;6779;50.150;8.680;2023-01-23T02:40:12;14.20;;;7.83;;
13415;SDS011;6779;50.150;8.680;2023-01-23T02:42:40;14.10;;;7.60;;
13415;SDS011;6779;50.150;8.680;2023-01-23T02:45:09;17.03;;;7.43;;
13415;SDS011;6779;50.150;8.680;2023-01-23T02:47:34;13.27;;;7.67;;
13415;SDS011;6779;50.150;8.680;2023-01-23T02:50:00;13.53;;;7.23;;
13415;SDS011;6779;50.150;8.680;2023-01-23T02:52:25;16.43;;;8.33;;
13415;SDS011;6779;50.150;8.680;2023-01-23T02:54:51;15.53;;;7.77;;
13415;SDS011;6779;50.150;8.680;2023-01-23T02:57:16;15.23;;;8.20;;
13415;SDS011;6779;50.150;8.680;2023-01-23T02:59:42;13.03;;;6.90;;
13415;SDS011;6779;50.150;8.680;2023-01-23T03:02:26;19.23;;;8.20;;
13415;SDS011;6779;50.150;8.680;2023-01-23T03:04:52;15.90;;;8.07;;
13415;SDS011;6779;50.150;8.680;2023-01-23T03:07:17;15.73;;;8.37;;
13415;SDS011;6779;50.150;8.680;2023-01-23T03:09:43;13.53;;;7.63;;
13415;SDS011;6779;50.150;8.680;2023-01-23T03:12:11;13.33;;;7.77;;
13415;SDS011;6779;50.150;8.680;2023-01-23T03:14:38;13.20;;;8.27;;
13415;SDS011;6779;50.150;8.680;2023-01-23T03:17:04;16.27;;;8.03;;
13415;SDS011;6779;50.150;8.680;2023-01-23T03:19:29;17.33;;;8.17;;
13415;SDS011;6779;50.150;8.680;2023-01-23T03:21:55;13.90;;;7.57;;
13415;SDS011;6779;50.150;8.680;2023-01-23T03:24:21;12.90;;;7.73;;
13415;SDS011;6779;50.150;8.680;2023-01-23T03:26:47;13.37;;;7.40;;
13415;SDS011;6779;50.150;8.680;2023-01-23T03:29:17;14.20;;;7.87;;
13415;SDS011;6779;50.150;8.680;2023-01-23T03:32:07;15.67;;;7.87;;
13415;SDS011;6779;50.150;8.680;2023-01-23T03:34:34;15.23;;;8.00;;
13415;SDS011;6779;50.150;8.680;2023-01-23T03:37:01;13.07;;;8.30;;
13415;SDS011;6779;50.150;8.680;2023-01-23T03:39:27;14.67;;;7.93;;
13415;SDS011;6779;50.150;8.680;2023-01-23T03:42:11;13.83;;;7.70;;
13415;SDS011;6779;50.150;8.680;2023-01-23T03:44:37;13.17;;;8.03;;
13415;SDS011;6779;50.150;8.680;2023-01-23T03:47:03;15.40;;;8.07;;
13415;SDS011;6779;50.150;8.680;2023-01-23T03:49:29;14.33;;;8.03;;
13415;SDS011;6779;50.150;8.680;2023-01-23T03:51:54;13.63;;;7.10;;
13415;SDS011;6779;50.150;8.680;2023-01-23T03:54:20;13.27;;;8.07;;
13415;SDS011;6779;50.150;8.680;2023-01-23T03:56:46;15.20;;;8.17;;
13415;SDS011;6779;50.150;8.680;2023-01-23T03:59:11;13.70;;;7.23;;
13415;SDS011;6779;50.150;8.680;2023-01-23T04:01:37;13.97;;;7.17;;
13415;SDS011;6779;50.150;8.680;2023-01-23T04:04:02;12.43;;;6.77;;
13415;SDS011;6779;50.150;8.680;2023-01-23T04:06:28;13.67;;;7.60;;
13415;SDS011;6779;50.150;8.680;2023-01-23T04:08:54;13.53;;;7.10;;
13415;SDS011;6779;50.150;8.680;2023-01-23T04:11:22;14.53;;;7.50;;
13415;SDS011;6779;50.150;8.680;2023-01-23T04:13:48;15.67;;;8.17;;
13415;SDS011;6779;50.150;8.680;2023-01-23T04:16:13;14.27;;;7.80;;
13415;SDS011;6779;50.150;8.680;2023-01-23T04:18:39;14.10;;;7.00;;
13415;SDS011;6779;50.150;8.680;2023-01-23T04:21:05;13.80;;;6.83;;
13415;SDS011;6779;50.150;8.680;2023-01-23T04:23:30;12.47;;;7.10;;
13415;SDS011;6779;50.150;8.680;2023-01-23T04:25:56;12.73;;;7.10;;
13415;SDS011;6779;50.150;8.680;2023-01-23T04:28:22;10.63;;;6.17;;
13415;SDS011;6779;50.150;8.680;2023-01-23T04:30:48;11.57;;;6.87;;
13415;SDS011;6779;50.150;8.680;2023-01-23T04:33:15;11.50;;;7.00;;
13415;SDS011;6779;50.150;8.680;2023-01-23T04:35:47;10.00;;;6.60;;
13415;SDS011;6779;50.150;8.680;2023-01-23T04:38:14;12.67;;;6.43;;
13415;SDS011;6779;50.150;8.680;2023-01-23T04:40:40;13.50;;;7.33;;
13415;SDS011;6779;50.150;8.680;2023-01-23T04:43:05;12.97;;;6.87;;
13415;SDS011;6779;50.150;8.680;2023-01-23T04:45:30;12.07;;;7.40;;
13415;SDS011;6779;50.150;8.680;2023-01-23T04:47:56;10.87;;;6.23;;
13415;SDS011;6779;50.150;8.680;2023-01-23T04:50:21;9.97;;;6.50;;
13415;SDS011;6779;50.150;8.680;2023-01-23T04:52:47;13.53;;;6.77;;
13415;SDS011;6779;50.150;8.680;2023-01-23T04:55:13;12.53;;;6.53;;
13415;SDS011;6779;50.150;8.680;2023-01-23T04:57:38;11.33;;;6.70;;
13415;SDS011;6779;50.150;8.680;2023-01-23T05:00:04;11.90;;;6.60;;
13415;SDS011;6779;50.150;8.680;2023-01-23T05:02:30;9.57;;;5.93;;
13415;SDS011;6779;50.150;8.680;2023-01-23T05:04:55;12.97;;;6.43;;
13415;SDS011;6779;50.150;8.680;2023-01-23T05:07:21;13.23;;;7.53;;
13415;SDS011;6779;50.150;8.680;2023-01-23T05:09:46;9.87;;;6.47;;
13415;SDS011;6779;50.150;8.680;2023-01-23T05:12:12;11.00;;;6.37;;
13415;SDS011;6779;50.150;8.680;2023-01-23T05:14:37;8.17;;;5.57;;
13415;SDS011;6779;50.150;8.680;2023-01-23T05:17:03;8.40;;;5.50;;
13415;SDS011;6779;50.150;8.680;2023-01-23T05:19:28;9.57;;;5.83;;
13415;SDS011;6779;50.150;8.680;2023-01-23T05:21:54;9.43;;;6.03;;
13415;SDS011;6779;50.150;8.680;2023-01-23T05:24:19;12.33;;;6.40;;
13415;SDS011;6779;50.150;8.680;2023-01-23T05:26:45;10.20;;;6.20;;
13415;SDS011;6779;50.150;8.680;2023-01-23T05:29:10;12.00;;;7.03;;
13415;SDS011;6779;50.150;8.680;2023-01-23T05:31:36;10.57;;;6.27;;
13415;SDS011;6779;50.150;8.680;2023-01-23T05:34:01;13.37;;;6.70;;
13415;SDS011;6779;50.150;8.680;2023-01-23T05:36:27;10.57;;;5.90;;
13415;SDS011;6779;50.150;8.680;2023-01-23T05:38:53;9.73;;;6.90;;
13415;SDS011;6779;50.150;8.680;2023-01-23T05:41:19;9.13;;;6.23;;
13415;SDS011;6779;50.150;8.680;2023-01-23T05:43:45;8.07;;;5.07;;
13415;SDS011;6779;50.150;8.680;2023-01-23T05:46:10;10.70;;;6.17;;
13415;SDS011;6779;50.150;8.680;2023-01-23T05:48:36;10.20;;;5.77;;
13415;SDS011;6779;50.150;8.680;2023-01-23T05:51:02;9.97;;;5.97;;
13415;SDS011;6779;50.150;8.680;2023-01-23T05:53:27;9.93;;;5.77;;
13415;SDS011;6779;50.150;8.680;2023-01-23T05:55:53;10.07;;;6.23;;
13415;SDS011;6779;50.150;8.680;2023-01-23T05:58:19;9.40;;;5.60;;
13415;SDS011;6779;50.150;8.680;2023-01-23T06:00:44;9.87;;;5.63;;
13415;SDS011;6779;50.150;8.680;2023-01-23T06:03:10;9.30;;;6.20;;
13415;SDS011;6779;50.150;8.680;2023-01-23T06:05:35;9.53;;;5.97;;
13415;SDS011;6779;50.150;8.680;2023-01-23T06:08:01;8.33;;;5.53;;
13415;SDS011;6779;50.150;8.680;2023-01-23T06:10:26;8.87;;;5.27;;
13415;SDS011;6779;50.150;8.680;2023-01-23T06:12:52;7.30;;;5.20;;
13415;SDS011;6779;50.150;8.680;2023-01-23T06:15:17;8.47;;;5.13;;
13415;SDS011;6779;50.150;8.680;2023-01-23T06:17:43;7.83;;;4.93;;
13415;SDS011;6779;50.150;8.680;2023-01-23T06:20:09;9.50;;;5.40;;
13415;SDS011;6779;50.150;8.680;2023-01-23T06:22:36;10.33;;;5.70;;
13415;SDS011;6779;50.150;8.680;2023-01-23T06:25:01;9.03;;;5.33;;
13415;SDS011;6779;50.150;8.680;2023-01-23T06:27:27;11.50;;;6.00;;
13415;SDS011;6779;50.150;8.680;2023-01-23T06:29:53;8.80;;;6.00;;
13415;SDS011;6779;50.150;8.680;2023-01-23T06:32:18;11.80;;;6.07;;
13415;SDS011;6779;50.150;8.680;2023-01-23T06:34:44;10.67;;;6.23;;
13415;SDS011;6779;50.150;8.680;2023-01-23T06:37:09;11.67;;;5.70;;
13415;SDS011;6779;50.150;8.680;2023-01-23T06:39:35;9.40;;;5.40;;
13415;SDS011;6779;50.150;8.680;2023-01-23T06:42:00;8.47;;;6.30;;
13415;SDS011;6779;50.150;8.680;2023-01-23T06:44:26;9.40;;;5.70;;
13415;SDS011;6779;50.150;8.680;2023-01-23T06:46:52;10.87;;;5.93;;
13415;SDS011;6779;50.150;8.680;2023-01-23T06:49:17;10.30;;;6.20;;
13415;SDS011;6779;50.150;8.680;2023-01-23T06:51:43;7.80;;;5.57;;
13415;SDS011;6779;50.150;8.680;2023-01-23T06:54:09;9.13;;;5.73;;
13415;SDS011;6779;50.150;8.680;2023-01-23T06:56:34;9.40;;;5.50;;
13415;SDS011;6779;50.150;8.680;2023-01-23T06:59:00;8.23;;;5.73;;
13415;SDS011;6779;50.150;8.680;2023-01-23T07:01:25;9.23;;;5.70;;
13415;SDS011;6779;50.150;8.680;2023-01-23T07:03:51;8.13;;;5.27;;
13415;SDS011;6779;50.150;8.680;2023-01-23T07:06:16;8.60;;;5.87;;
13415;SDS011;6779;50.150;8.680;2023-01-23T07:08:42;9.33;;;5.90;;
13415;SDS011;6779;50.150;8.680;2023-01-23T07:11:08;10.60;;;6.03;;
13415;SDS011;6779;50.150;8.680;2023-01-23T07:13:34;10.50;;;6.07;;
13415;SDS011;6779;50.150;8.680;2023-01-23T07:15:59;10.17;;;5.70;;
13415;SDS011;6779;50.150;8.680;2023-01-23T07:18:25;9.73;;;5.63;;
13415;SDS011;6779;50.150;8.680;2023-01-23T07:20:53;9.53;;;6.17;;
13415;SDS011;6779;50.150;8.680;2023-01-23T07:23:19;10.23;;;5.93;;
13415;SDS011;6779;50.150;8.680;2023-01-23T07:25:45;8.60;;;5.57;;
13415;SDS011;6779;50.150;8.680;2023-01-23T07:28:11;8.87;;;5.67;;
13415;SDS011;6779;50.150;8.680;2023-01-23T07:30:37;9.20;;;5.57;;
13415;SDS011;6779;50.150;8.680;2023-01-23T07:33:03;12.23;;;6.20;;
13415;SDS011;6779;50.150;8.680;2023-01-23T07:35:28;9.97;;;6.40;;
13415;SDS011;6779;50.150;8.680;2023-01-23T07:37:54;10.40;;;6.00;;
13415;SDS011;6779;50.150;8.680;2023-01-23T07:40:20;9.83;;;5.47;;
13415;SDS011;6779;50.150;8.680;2023-01-23T07:42:46;7.80;;;5.40;;
13415;SDS011;6779;50.150;8.680;2023-01-23T07:45:11;11.03;;;6.03;;
13415;SDS011;6779;50.150;8.680;2023-01-23T07:47:37;8.33;;;5.03;;
13415;SDS011;6779;50.150;8.680;2023-01-23T07:50:13;13.17;;;5.73;;
13415;SDS011;6779;50.150;8.680;2023-01-23T07:52:38;9.87;;;6.30;;
13415;SDS011;6779;50.150;8.680;2023-01-23T07:55:04;10.13;;;6.07;;
13415;SDS011;6779;50.150;8.680;2023-01-23T07:57:30;9.93;;;5.77;;
13415;SDS011;6779;50.150;8.680;2023-01-23T07:59:57;9.90;;;6.00;;
13415;SDS011;6779;50.150;8.680;2023-01-23T08:02:23;11.60;;;5.30;;
13415;SDS011;6779;50.150;8.680;2023-01-23T08:04:49;9.30;;;5.23;;
13415;SDS011;6779;50.150;8.680;2023-01-23T08:07:14;11.37;;;6.20;;
13415;SDS011;6779;50.150;8.680;2023-01-23T08:09:39;8.43;;;5.53;;
13415;SDS011;6779;50.150;8.680;2023-01-23T08:12:05;8.97;;;6.77;;
13415;SDS011;6779;50.150;8.680;2023-01-23T08:14:31;8.40;;;5.80;;
13415;SDS011;6779;50.150;8.680;2023-01-23T08:16:57;11.23;;;5.60;;
13415;SDS011;6779;50.150;8.680;2023-01-23T08:19:22;8.93;;;5.63;;
13415;SDS011;6779;50.150;8.680;2023-01-23T08:21:51;11.10;;;5.97;;
13415;SDS011;6779;50.150;8.680;2023-01-23T08:24:16;9.93;;;6.10;;
13415;SDS011;6779;50.150;8.680;2023-01-23T08:26:42;11.97;;;6.80;;
13415;SDS011;6779;50.150;8.680;2023-01-23T08:29:07;8.17;;;5.63;;
13415;SDS011;6779;50.150;8.680;2023-01-23T08:31:34;10.10;;;6.50;;
13415;SDS011;6779;50.150;8.680;2023-01-23T08:34:00;12.10;;;6.70;;
13415;SDS011;6779;50.150;8.680;2023-01-23T08:36:26;9.77;;;6.30;;
13415;SDS011;6779;50.150;8.680;2023-01-23T08:38:52;9.67;;;5.80;;
13415;SDS011;6779;50.150;8.680;2023-01-23T08:41:17;9.07;;;5.90;;
13415;SDS011;6779;50.150;8.680;2023-01-23T08:43:43;12.80;;;7.17;;
13415;SDS011;6779;50.150;8.680;2023-01-23T08:46:09;10.23;;;6.60;;
13415;SDS011;6779;50.150;8.680;2023-01-23T08:48:35;11.83;;;6.87;;
13415;SDS011;6779;50.150;8.680;2023-01-23T08:51:02;9.47;;;6.10;;
13415;SDS011;6779;50.150;8.680;2023-01-23T08:53:30;9.27;;;5.70;;
13415;SDS011;6779;50.150;8.680;2023-01-23T08:56:00;8.93;;;6.03;;
13415;SDS011;6779;50.150;8.680;2023-01-23T08:58:26;9.57;;;6.00;;
13415;SDS011;6779;50.150;8.680;2023-01-23T09:00:52;13.13;;;8.13;;
13415;SDS011;6779;50.150;8.680;2023-01-23T09:03:18;9.67;;;6.87;;
13415;SDS011;6779;50.150;8.680;2023-01-23T09:05:43;12.63;;;6.17;;
13415;SDS011;6779;50.150;8.680;2023-01-23T09:08:09;20.23;;;7.53;;
13415;SDS011;6779;50.150;8.680;2023-01-23T09:10:34;10.27;;;6.03;;
13415;SDS011;6779;50.150;8.680;2023-01-23T09:13:00;15.83;;;6.00;;
13415;SDS011;6779;50.150;8.680;2023-01-23T09:15:26;9.73;;;6.20;;
13415;SDS011;6779;50.150;8.680;2023-01-23T09:17:51;10.97;;;6.73;;
13415;SDS011;6779;50.150;8.680;2023-01-23T09:20:17;7.93;;;5.93;;
13415;SDS011;6779;50.150;8.680;2023-01-23T09:22:43;11.63;;;6.93;;
13415;SDS011;6779;50.150;8.680;2023-01-23T09:25:09;25.00;;;8.77;;
13415;SDS011;6779;50.150;8.680;2023-01-23T09:27:34;11.27;;;7.60;;
13415;SDS011;6779;50.150;8.680;2023-01-23T09:30:00;9.87;;;6.30;;
13415;SDS011;6779;50.150;8.680;2023-01-23T09:32:25;10.40;;;6.50;;
13415;SDS011;6779;50.150;8.680;2023-01-23T09:34:51;11.60;;;6.77;;
13415;SDS011;6779;50.150;8.680;2023-01-23T09:37:19;10.87;;;6.23;;
13415;SDS011;6779;50.150;8.680;2023-01-23T09:39:44;10.23;;;6.40;;
13415;SDS011;6779;50.150;8.680;2023-01-23T09:42:13;10.37;;;6.33;;
13415;SDS011;6779;50.150;8.680;2023-01-23T09:44:52;11.67;;;6.20;;
13415;SDS011;6779;50.150;8.680;2023-01-23T09:50:04;12.20;;;7.13;;
13415;SDS011;6779;50.150;8.680;2023-01-23T09:52:52;9.30;;;6.40;;
13415;SDS011;6779;50.150;8.680;2023-01-23T09:55:39;14.93;;;6.27;;
13415;SDS011;6779;50.150;8.680;2023-01-23T09:58:14;10.77;;;6.57;;
13415;SDS011;6779;50.150;8.680;2023-01-23T10:00:47;9.47;;;6.23;;
13415;SDS011;6779;50.150;8.680;2023-01-23T10:03:15;12.30;;;6.87;;
13415;SDS011;6779;50.150;8.680;2023-01-23T10:06:03;10.10;;;6.13;;
13415;SDS011;6779;50.150;8.680;2023-01-23T10:11:35;14.10;;;7.17;;
13415;SDS011;6779;50.150;8.680;2023-01-23T10:19:44;9.47;;;6.13;;
13415;SDS011;6779;50.150;8.680;2023-01-23T10:24:58;9.87;;;6.20;;
13415;SDS011;6779;50.150;8.680;2023-01-23T10:27:33;10.60;;;6.33;;
13415;SDS011;6779;50.150;8.680;2023-01-23T10:33:01;15.47;;;6.80;;
13415;SDS011;6779;50.150;8.680;2023-01-23T10:35:35;12.13;;;6.60;;
13415;SDS011;6779;50.150;8.680;2023-01-23T10:40:47;9.80;;;6.33;;
13415;SDS011;6779;50.150;8.680;2023-01-23T10:43:31;12.37;;;6.77;;
13415;SDS011;6779;50.150;8.680;2023-01-23T10:45:57;10.40;;;5.93;;
13415;SDS011;6779;50.150;8.680;2023-01-23T10:50:57;10.57;;;6.10;;
13415;SDS011;6779;50.150;8.680;2023-01-23T10:53:24;10.40;;;6.53;;
13415;SDS011;6779;50.150;8.680;2023-01-23T10:55:50;9.43;;;6.00;;
13415;SDS011;6779;50.150;8.680;2023-01-23T11:00:57;11.70;;;6.43;;
13415;SDS011;6779;50.150;8.680;2023-01-23T11:03:23;11.33;;;6.90;;
13415;SDS011;6779;50.150;8.680;2023-01-23T11:05:51;14.73;;;8.20;;
13415;SDS011;6779;50.150;8.680;2023-01-23T11:08:31;11.67;;;6.33;;
13415;SDS011;6779;50.150;8.680;2023-01-23T11:13:38;12.23;;;7.03;;
13415;SDS011;6779;50.150;8.680;2023-01-23T11:16:04;12.47;;;7.03;;
13415;SDS011;6779;50.150;8.680;2023-01-23T11:18:31;9.83;;;6.07;;
13415;SDS011;6779;50.150;8.680;2023-01-23T11:20:59;13.13;;;6.20;;
13415;SDS011;6779;50.150;8.680;2023-01-23T11:23:25;10.90;;;5.33;;
13415;SDS011;6779;50.150;8.680;2023-01-23T11:25:53;11.77;;;6.30;;
13415;SDS011;6779;50.150;8.680;2023-01-23T11:28:23;9.13;;;5.17;;
13415;SDS011;6779;50.150;8.680;2023-01-23T11:31:10;8.23;;;4.87;;
13415;SDS011;6779;50.150;8.680;2023-01-23T11:33:49;7.93;;;4.33;;
13415;SDS011;6779;50.150;8.680;2023-01-23T11:39:14;7.30;;;4.50;;
13415;SDS011;6779;50.150;8.680;2023-01-23T11:41:43;6.50;;;4.53;;
13415;SDS011;6779;50.150;8.680;2023-01-23T11:44:20;5.77;;;3.87;;
13415;SDS011;6779;50.150;8.680;2023-01-23T11:47:02;8.07;;;4.70;;
13415;SDS011;6779;50.150;8.680;2023-01-23T12:03:02;5.50;;;4.67;;
13415;SDS011;6779;50.150;8.680;2023-01-23T12:06:00;8.57;;;5.40;;
13415;SDS011;6779;50.150;8.680;2023-01-23T12:09:04;5.73;;;4.33;;
13415;SDS011;6779;50.150;8.680;2023-01-23T12:20:21;5.37;;;4.50;;
13415;SDS011;6779;50.150;8.680;2023-01-23T12:23:43;7.17;;;5.00;;
13415;SDS011;6779;50.150;8.680;2023-01-23T12:26:14;8.63;;;4.93;;
13415;SDS011;6779;50.150;8.680;2023-01-23T12:31:55;8.30;;;5.17;;
13415;SDS011;6779;50.150;8.680;2023-01-23T12:37:32;8.47;;;5.63;;
13415;SDS011;6779;50.150;8.680;2023-01-23T12:40:17;8.20;;;5.50;;
13415;SDS011;6779;50.150;8.680;2023-01-23T12:42:52;6.93;;;4.90;;
13415;SDS011;6779;50.150;8.680;2023-01-23T12:45:25;7.43;;;5.90;;
13415;SDS011;6779;50.150;8.680;2023-01-23T12:53:16;8.13;;;6.13;;
13415;SDS011;6779;50.150;8.680;2023-01-23T12:55:58;8.47;;;5.83;;
13415;SDS011;6779;50.150;8.680;2023-01-23T12:59:20;8.07;;;5.33;;
13415;SDS011;6779;50.150;8.680;2023-01-23T13:01:49;7.43;;;5.40;;
13415;SDS011;6779;50.150;8.680;2023-01-23T13:12:20;8.57;;;6.53;;
13415;SDS011;6779;50.150;8.680;2023-01-23T13:14:48;9.33;;;6.23;;
13415;SDS011;6779;50.150;8.680;2023-01-23T13:17:36;11.73;;;6.17;;
13415;SDS011;6779;50.150;8.680;2023-01-23T13:20:25;10.13;;;5.83;;
13415;SDS011;6779;50.150;8.680;2023-01-23T13:28:41;7.93;;;5.33;;
13415;SDS011;6779;50.150;8.680;2023-01-23T13:33:58;16.43;;;6.77;;
13415;SDS011;6779;50.150;8.680;2023-01-23T13:36:25;9.60;;;5.73;;
13415;SDS011;6779;50.150;8.680;2023-01-23T13:41:40;16.50;;;7.90;;
13415;SDS011;6779;50.150;8.680;2023-01-23T13:44:15;18.83;;;5.97;;
13415;SDS011;6779;50.150;8.680;2023-01-23T13:49:46;11.60;;;7.23;;
13415;SDS011;6779;50.150;8.680;2023-01-23T13:52:23;10.87;;;6.40;;
13415;SDS011;6779;50.150;8.680;2023-01-23T13:55:19;11.57;;;6.40;;
13415;SDS011;6779;50.150;8.680;2023-01-23T13:58:09;10.57;;;6.30;;
13415;SDS011;6779;50.150;8.680;2023-01-23T14:00:37;11.63;;;6.13;;
13415;SDS011;6779;50.150;8.680;2023-01-23T14:06:08;8.97;;;5.57;;
13415;SDS011;6779;50.150;8.680;2023-01-23T14:08:48;8.63;;;5.87;;
13415;SDS011;6779;50.150;8.680;2023-01-23T14:11:16;10.67;;;4.90;;
13415;SDS011;6779;50.150;8.680;2023-01-23T14:13:49;7.20;;;5.03;;
13415;SDS011;6779;50.150;8.680;2023-01-23T14:16:40;9.83;;;4.80;;
13415;SDS011;6779;50.150;8.680;2023-01-23T14:19:13;6.43;;;4.63;;
13415;SDS011;6779;50.150;8.680;2023-01-23T14:21:47;9.13;;;4.53;;
13415;SDS011;6779;50.150;8.680;2023-01-23T14:24:20;7.87;;;5.37;;
13415;SDS011;6779;50.150;8.680;2023-01-23T14:26:48;7.07;;;4.90;;
13415;SDS011;6779;50.150;8.680;2023-01-23T14:29:22;7.20;;;5.63;;
13415;SDS011;6779;50.150;8.680;2023-01-23T14:31:49;9.20;;;5.80;;
13415;SDS011;6779;50.150;8.680;2023-01-23T14:34:16;8.33;;;5.20;;
13415;SDS011;6779;50.150;8.680;2023-01-23T14:36:48;9.03;;;5.60;;
13415;SDS011;6779;50.150;8.680;2023-01-23T14:39:26;12.77;;;5.80;;
13415;SDS011;6779;50.150;8.680;2023-01-23T14:41:54;7.83;;;5.23;;
13415;SDS011;6779;50.150;8.680;2023-01-23T14:44:29;9.67;;;5.90;;
13415;SDS011;6779;50.150;8.680;2023-01-23T14:47:05;8.03;;;5.70;;
13415;SDS011;6779;50.150;8.680;2023-01-23T14:49:40;9.73;;;6.00;;
13415;SDS011;6779;50.150;8.680;2023-01-23T14:52:06;9.23;;;6.00;;
13415;SDS011;6779;50.150;8.680;2023-01-23T14:54:43;9.83;;;5.63;;
13415;SDS011;6779;50.150;8.680;2023-01-23T14:57:09;8.67;;;5.87;;
13415;SDS011;6779;50.150;8.680;2023-01-23T14:59:37;8.07;;;5.93;;
13415;SDS011;6779;50.150;8.680;2023-01-23T15:10:22;10.30;;;6.67;;
13415;SDS011;6779;50.150;8.680;2023-01-23T15:12:59;8.57;;;6.17;;
13415;SDS011;6779;50.150;8.680;2023-01-23T15:15:33;10.53;;;6.20;;
13415;SDS011;6779;50.150;8.680;2023-01-23T15:18:00;9.87;;;6.13;;
13415;SDS011;6779;50.150;8.680;2023-01-23T15:22:55;10.40;;;6.47;;
13415;SDS011;6779;50.150;8.680;2023-01-23T15:25:28;10.57;;;6.70;;
13415;SDS011;6779;50.150;8.680;2023-01-23T15:27:56;11.60;;;6.77;;
13415;SDS011;6779;50.150;8.680;2023-01-23T15:33:00;9.23;;;6.10;;
13415;SDS011;6779;50.150;8.680;2023-01-23T15:35:32;12.33;;;7.07;;
13415;SDS011;6779;50.150;8.680;2023-01-23T15:37:59;10.10;;;6.50;;
13415;SDS011;6779;50.150;8.680;2023-01-23T15:40:28;11.80;;;6.17;;
13415;SDS011;6779;50.150;8.680;2023-01-23T15:43:05;12.37;;;6.77;;
13415;SDS011;6779;50.150;8.680;2023-01-23T15:45:35;10.80;;;6.10;;
13415;SDS011;6779;50.150;8.680;2023-01-23T15:48:01;10.33;;;6.90;;
13415;SDS011;6779;50.150;8.680;2023-01-23T15:50:27;10.53;;;6.47;;
13415;SDS011;6779;50.150;8.680;2023-01-23T15:52:53;8.83;;;6.07;;
13415;SDS011;6779;50.150;8.680;2023-01-23T15:55:21;11.03;;;6.07;;
13415;SDS011;6779;50.150;8.680;2023-01-23T15:57:49;8.80;;;5.53;;
13415;SDS011;6779;50.150;8.680;2023-01-23T16:00:17;8.73;;;5.63;;
13415;SDS011;6779;50.150;8.680;2023-01-23T16:02:45;10.10;;;6.07;;
13415;SDS011;6779;50.150;8.680;2023-01-23T16:05:11;9.50;;;6.20;;
13415;SDS011;6779;50.150;8.680;2023-01-23T16:07:38;9.40;;;6.03;;
13415;SDS011;6779;50.150;8.680;2023-01-23T16:10:25;11.47;;;6.40;;
13415;SDS011;6779;50.150;8.680;2023-01-23T16:12:54;9.27;;;6.13;;
13415;SDS011;6779;50.150;8.680;2023-01-23T16:15:25;11.13;;;6.33;;
13415;SDS011;6779;50.150;8.680;2023-01-23T16:17:52;9.00;;;6.13;;
13415;SDS011;6779;50.150;8.680;2023-01-23T16:20:20;11.37;;;6.47;;
13415;SDS011;6779;50.150;8.680;2023-01-23T16:22:48;13.27;;;7.40;;
13415;SDS011;6779;50.150;8.680;2023-01-23T16:25:18;21.53;;;9.07;;
13415;SDS011;6779;50.150;8.680;2023-01-23T16:27:50;24.03;;;9.93;;
13415;SDS011;6779;50.150;8.680;2023-01-23T16:30:16;26.53;;;10.87;;
13415;SDS011;6779;50.150;8.680;2023-01-23T16:32:43;18.73;;;9.10;;
13415;SDS011;6779;50.150;8.680;2023-01-23T16:35:12;19.57;;;8.63;;
13415;SDS011;6779;50.150;8.680;2023-01-23T16:37:39;12.80;;;7.37;;
13415;SDS011;6779;50.150;8.680;2023-01-23T16:40:16;12.20;;;7.37;;
13415;SDS011;6779;50.150;8.680;2023-01-23T16:42:51;12.50;;;6.90;;
13415;SDS011;6779;50.150;8.680;2023-01-23T16:45:20;14.70;;;7.47;;
13415;SDS011;6779;50.150;8.680;2023-01-23T16:47:47;11.97;;;7.17;;
13415;SDS011;6779;50.150;8.680;2023-01-23T16:50:13;12.47;;;7.03;;
13415;SDS011;6779;50.150;8.680;2023-01-23T16:52:41;20.40;;;10.03;;